createdAt,value
2023-01-20T00:00:33.551Z,100172.00
2023-01-20T00:03:03.010Z,100175.56
2023-01-20T00:05:30.617Z,100168.09
2023-01-20T00:07:58.259Z,100178.13
2023-01-20T00:10:25.888Z,100181.81
2023-01-20T00:12:56.810Z,100183.50
2023-01-20T00:15:24.389Z,100188.84
2023-01-20T00:17:52.019Z,100189.03
2023-01-20T00:20:19.694Z,100200.50
2023-01-20T00:22:47.203Z,100203.22
2023-01-20T00:25:15.343Z,100197.47
2023-01-20T00:27:43.074Z,100194.66
2023-01-20T00:30:13.258Z,100199.25
2023-01-20T00:32:44.669Z,100196.63
2023-01-20T00:35:12.624Z,100200.91
2023-01-20T00:37:40.479Z,100204.94
2023-01-20T00:40:09.172Z,100210.69
2023-01-20T00:42:36.796Z,100211.50
2023-01-20T00:45:04.836Z,100212.88
2023-01-20T00:47:33.683Z,100213.47
2023-01-20T00:50:16.871Z,100212.50
2023-01-20T00:52:44.305Z,100210.53
2023-01-20T00:55:12.451Z,100215.53
2023-01-20T00:57:40.404Z,100215.00
2023-01-20T01:00:09.148Z,100221.13
2023-01-20T01:02:40.436Z,100213.38
2023-01-20T01:05:08.328Z,100220.63
2023-01-20T01:07:35.780Z,100223.50
2023-01-20T01:10:03.265Z,100230.72
2023-01-20T01:12:30.737Z,100232.47
2023-01-20T01:14:58.220Z,100237.25
2023-01-20T01:17:25.714Z,100236.75
2023-01-20T01:19:54.710Z,100239.69
2023-01-20T01:22:22.849Z,100242.97
2023-01-20T01:24:50.313Z,100244.09
2023-01-20T01:27:17.885Z,100248.81
2023-01-20T01:29:45.319Z,100247.91
2023-01-20T01:32:12.817Z,100248.34
2023-01-20T01:34:40.276Z,100261.69
2023-01-20T01:37:09.093Z,100261.63
2023-01-20T01:39:36.550Z,100261.69
2023-01-20T01:42:04.052Z,100264.66
2023-01-20T01:44:32.853Z,100266.00
2023-01-20T01:47:00.316Z,100273.22
2023-01-20T01:49:29.591Z,100269.19
2023-01-20T01:52:00.029Z,100269.94
2023-01-20T01:54:32.281Z,100267.84
2023-01-20T01:57:00.456Z,100275.09
2023-01-20T01:59:28.212Z,100267.97
2023-01-20T02:01:55.982Z,100272.06
2023-01-20T02:04:25.107Z,100269.44
2023-01-20T02:06:55.566Z,100277.97
2023-01-20T02:09:23.466Z,100280.84
2023-01-20T02:11:54.669Z,100279.63
2023-01-20T02:14:24.185Z,100280.91
2023-01-20T02:16:59.277Z,100282.69
2023-01-20T02:19:59.555Z,100295.78
2023-01-20T02:22:34.230Z,100302.34
2023-01-20T02:25:21.324Z,100297.50
2023-01-20T02:28:19.345Z,100304.84
2023-01-20T02:30:58.406Z,100311.31
2023-01-20T02:33:29.516Z,100312.16
2023-01-20T02:36:00.526Z,100317.53
2023-01-20T02:38:32.737Z,100319.19
2023-01-20T02:41:08.393Z,100317.78
2023-01-20T02:43:39.818Z,100327.03
2023-01-20T02:46:12.885Z,100326.44
2023-01-20T02:48:44.268Z,100333.00
2023-01-20T02:51:14.768Z,100328.13
2023-01-20T02:53:49.294Z,100334.66
2023-01-20T02:56:17.893Z,100334.00
2023-01-20T02:58:50.388Z,100326.97
2023-01-20T03:01:21.791Z,100331.91
2023-01-20T03:03:53.100Z,100339.81
2023-01-20T03:06:22.781Z,100343.25
2023-01-20T03:08:52.401Z,100341.16
2023-01-20T03:11:20.250Z,100343.28
2023-01-20T03:13:51.749Z,100347.38
2023-01-20T03:16:21.830Z,100355.22
2023-01-20T03:18:51.147Z,100355.34
2023-01-20T03:21:19.286Z,100360.81
2023-01-20T03:23:49.139Z,100363.28
2023-01-20T03:26:18.389Z,100362.22
2023-01-20T03:28:46.962Z,100361.34
2023-01-20T03:31:17.112Z,100363.97
2023-01-20T03:33:45.530Z,100372.25
2023-01-20T03:36:16.030Z,100377.75
2023-01-20T03:38:43.749Z,100384.78
2023-01-20T03:41:17.651Z,100384.00
2023-01-20T03:43:49.219Z,100380.03
2023-01-20T03:46:21.740Z,100390.75
2023-01-20T03:48:53.690Z,100383.19
2023-01-20T03:51:26.888Z,100380.53
2023-01-20T03:53:57.635Z,100390.81
2023-01-20T03:56:29.276Z,100383.66
2023-01-20T03:58:59.057Z,100393.00
2023-01-20T04:01:31.605Z,100390.53
2023-01-20T04:04:00.269Z,100394.88
2023-01-20T04:06:30.035Z,100404.09
2023-01-20T04:09:01.554Z,100402.72
2023-01-20T04:11:29.928Z,100403.16
2023-01-20T04:13:57.622Z,100407.53
2023-01-20T04:16:26.181Z,100409.75
2023-01-20T04:18:54.377Z,100411.41
2023-01-20T04:21:25.634Z,100416.31
2023-01-20T04:23:57.271Z,100418.81
2023-01-20T04:26:24.733Z,100420.97
2023-01-20T04:28:52.230Z,100413.38
2023-01-20T04:31:30.209Z,100411.94
2023-01-20T04:33:58.270Z,100410.16
2023-01-20T04:36:25.944Z,100408.34
2023-01-20T04:38:54.861Z,100410.66
2023-01-20T04:41:22.320Z,100413.03
2023-01-20T04:43:49.842Z,100424.84
2023-01-20T04:46:17.447Z,100417.50
2023-01-20T04:48:45.924Z,100416.38
2023-01-20T04:51:13.794Z,100425.63
2023-01-20T04:53:41.339Z,100417.97
2023-01-20T04:56:13.296Z,100421.75
2023-01-20T04:58:41.099Z,100421.25
2023-01-20T05:01:08.733Z,100437.78
2023-01-20T05:03:36.324Z,100435.38
2023-01-20T05:06:04.045Z,100437.75
2023-01-20T05:08:31.567Z,100430.75
2023-01-20T05:10:59.279Z,100439.50
2023-01-20T05:13:28.113Z,100443.41
2023-01-20T05:15:55.865Z,100441.00
2023-01-20T05:18:23.360Z,100440.50
2023-01-20T05:20:51.317Z,100447.19
2023-01-20T05:23:18.803Z,100452.06
2023-01-20T05:25:51.083Z,100453.19
2023-01-20T05:28:18.603Z,100457.28
2023-01-20T05:30:48.462Z,100464.66
2023-01-20T05:33:16.028Z,100460.84
2023-01-20T05:35:43.573Z,100462.13
2023-01-20T05:38:11.084Z,100464.59
2023-01-20T05:40:38.570Z,100463.69
2023-01-20T05:43:06.115Z,100471.31
2023-01-20T05:45:33.669Z,100480.56
2023-01-20T05:48:03.124Z,100482.38
2023-01-20T05:50:30.782Z,100484.50
2023-01-20T05:52:58.239Z,100483.19
2023-01-20T05:55:25.762Z,100485.31
2023-01-20T05:57:53.228Z,100483.75
2023-01-20T06:00:21.503Z,100490.34
2023-01-20T06:02:49.093Z,100498.31
2023-01-20T06:05:18.349Z,100496.00
2023-01-20T06:07:45.873Z,100499.84
2023-01-20T06:10:13.646Z,100501.72
2023-01-20T06:12:41.201Z,100507.81
2023-01-20T06:15:09.552Z,100507.63
2023-01-20T06:17:37.070Z,100515.84
2023-01-20T06:20:06.226Z,100522.84
2023-01-20T06:22:35.073Z,100526.31
2023-01-20T06:25:02.677Z,100525.16
2023-01-20T06:27:30.182Z,100537.44
2023-01-20T06:29:57.704Z,100531.72
2023-01-20T06:32:25.218Z,100536.69
2023-01-20T06:34:53.301Z,100538.84
2023-01-20T06:37:20.861Z,100544.78
2023-01-20T06:39:49.697Z,100547.13
2023-01-20T06:42:17.157Z,100542.84
2023-01-20T06:44:44.889Z,100549.81
2023-01-20T06:47:12.391Z,100552.94
2023-01-20T06:49:39.969Z,100552.94
2023-01-20T06:52:08.261Z,100558.94
2023-01-20T06:54:35.804Z,100556.69
2023-01-20T06:57:04.872Z,100562.38
2023-01-20T06:59:32.364Z,100574.91
2023-01-20T07:01:59.902Z,100578.47
2023-01-20T07:04:27.452Z,100586.16
2023-01-20T07:06:54.912Z,100579.44
2023-01-20T07:09:22.458Z,100587.94
2023-01-20T07:11:49.938Z,100587.00
2023-01-20T07:14:18.750Z,100586.28
2023-01-20T07:16:47.481Z,100585.38
2023-01-20T07:19:15.096Z,100577.16
2023-01-20T07:21:42.569Z,100580.91
2023-01-20T07:24:10.498Z,100593.66
2023-01-20T07:26:37.973Z,100593.88
2023-01-20T07:29:05.473Z,100588.97
2023-01-20T07:31:34.422Z,100595.94
2023-01-20T07:34:02.038Z,100601.59
2023-01-20T07:36:29.576Z,100600.63
2023-01-20T07:38:57.070Z,100609.97
2023-01-20T07:41:24.564Z,100618.44
2023-01-20T07:44:15.936Z,100615.88
2023-01-20T07:46:44.855Z,100619.63
2023-01-20T07:49:12.787Z,100614.97
2023-01-20T07:51:40.323Z,100622.00
2023-01-20T07:54:09.271Z,100627.47
2023-01-20T07:56:36.748Z,100622.56
2023-01-20T07:59:04.275Z,100625.31
2023-01-20T08:01:33.172Z,100628.38
2023-01-20T08:04:02.058Z,100626.38
2023-01-20T08:06:30.299Z,100639.81
2023-01-20T08:09:00.865Z,100635.03
2023-01-20T08:11:28.553Z,100641.94
2023-01-20T08:13:56.174Z,100644.44
2023-01-20T08:16:24.009Z,100645.25
2023-01-20T08:18:54.053Z,100651.63
2023-01-20T08:21:24.494Z,100646.28
2023-01-20T08:23:52.046Z,100636.41
2023-01-20T08:26:20.366Z,100648.06
2023-01-20T08:28:48.387Z,100652.53
2023-01-20T08:31:17.861Z,100651.13
2023-01-20T08:33:45.867Z,100653.78
2023-01-20T08:36:15.251Z,100662.03
2023-01-20T08:38:44.336Z,100667.16
2023-01-20T08:41:13.743Z,100661.66
2023-01-20T08:43:41.310Z,100667.03
2023-01-20T08:46:10.332Z,100662.22
2023-01-20T08:48:39.149Z,100670.06
2023-01-20T08:51:08.686Z,100668.41
2023-01-20T08:53:36.487Z,100680.69
2023-01-20T08:56:05.739Z,100674.91
2023-01-20T08:58:33.550Z,100681.72
2023-01-20T09:01:01.312Z,100686.06
2023-01-20T09:03:29.026Z,100688.50
2023-01-20T09:05:59.221Z,100693.34
2023-01-20T09:08:27.311Z,100698.28
2023-01-20T09:10:57.381Z,100696.28
2023-01-20T09:13:26.202Z,100711.59
2023-01-20T09:15:53.890Z,100712.94
2023-01-20T09:18:21.407Z,100710.56
2023-01-20T09:20:48.862Z,100706.81
2023-01-20T09:23:16.375Z,100711.44
2023-01-20T09:25:43.929Z,100711.31
2023-01-20T09:28:12.006Z,100719.53
2023-01-20T09:30:42.664Z,100720.25
2023-01-20T09:33:11.064Z,100717.84
2023-01-20T09:35:38.560Z,100723.69
2023-01-20T09:38:24.247Z,100734.81
2023-01-20T09:41:17.541Z,100724.28
2023-01-20T09:43:55.362Z,100727.59
2023-01-20T09:46:30.297Z,100731.41
2023-01-20T09:49:23.223Z,100735.44
2023-01-20T09:52:15.308Z,100725.53
2023-01-20T09:54:46.273Z,100724.84
2023-01-20T09:57:14.293Z,100722.63
2023-01-20T09:59:45.313Z,100730.63
2023-01-20T10:02:18.977Z,100717.59
2023-01-20T10:04:49.056Z,100721.09
2023-01-20T10:07:24.044Z,100721.56
2023-01-20T10:09:55.714Z,100718.47
2023-01-20T10:12:28.450Z,100723.06
2023-01-20T10:15:01.451Z,100718.22
2023-01-20T10:17:33.162Z,100720.13
2023-01-20T10:20:04.585Z,100729.53
2023-01-20T10:22:33.457Z,100715.00
2023-01-20T10:25:05.451Z,100720.00
2023-01-20T10:27:34.534Z,100730.00
2023-01-20T10:30:07.429Z,100721.66
2023-01-20T10:32:38.420Z,100723.69
2023-01-20T10:35:15.247Z,100728.22
2023-01-20T10:37:43.151Z,100731.69
2023-01-20T10:40:18.385Z,100734.53
2023-01-20T10:42:49.120Z,100729.06
2023-01-20T10:45:21.339Z,100730.25
2023-01-20T10:47:56.384Z,100727.41
2023-01-20T10:50:35.972Z,100729.53
2023-01-20T10:53:25.094Z,100727.47
2023-01-20T10:56:03.647Z,100737.50
2023-01-20T10:58:32.326Z,100728.97
2023-01-20T11:01:03.459Z,100728.50
2023-01-20T11:03:36.136Z,100720.63
2023-01-20T11:06:04.565Z,100723.66
2023-01-20T11:08:32.079Z,100721.19
2023-01-20T11:11:01.007Z,100720.63
2023-01-20T11:13:28.609Z,100714.75
2023-01-20T11:15:58.171Z,100709.38
2023-01-20T11:18:28.831Z,100721.47
2023-01-20T11:21:00.453Z,100725.53
2023-01-20T11:23:35.663Z,100715.97
2023-01-20T11:26:09.909Z,100731.44
2023-01-20T11:28:49.854Z,100722.75
2023-01-20T11:31:17.825Z,100731.97
2023-01-20T11:33:59.568Z,100734.00
2023-01-20T11:36:28.477Z,100740.25
2023-01-20T11:38:57.241Z,100733.63
2023-01-20T11:41:26.640Z,100736.13
2023-01-20T11:43:57.259Z,100740.50
2023-01-20T11:46:28.079Z,100737.75
2023-01-20T11:49:17.301Z,100740.72
2023-01-20T11:51:48.862Z,100734.31
2023-01-20T11:54:19.352Z,100747.56
2023-01-20T11:56:48.536Z,100744.84
2023-01-20T11:59:26.925Z,100736.97
2023-01-20T12:02:01.661Z,100751.91
2023-01-20T12:04:56.350Z,100743.22
2023-01-20T12:07:27.960Z,100751.59
2023-01-20T12:09:59.175Z,100744.94
2023-01-20T12:12:32.962Z,100748.56
2023-01-20T12:15:03.549Z,100733.72
2023-01-20T12:17:41.116Z,100740.31
2023-01-20T12:20:15.559Z,100741.13
2023-01-20T12:22:51.311Z,100746.13
2023-01-20T12:25:22.148Z,100749.84
2023-01-20T12:27:52.292Z,100742.22
2023-01-20T12:30:38.508Z,100740.75
2023-01-20T12:33:06.525Z,100741.38
2023-01-20T12:35:42.216Z,100739.94
2023-01-20T12:38:19.765Z,100745.09
2023-01-20T12:40:50.023Z,100740.09
2023-01-20T12:43:28.916Z,100743.78
2023-01-20T12:46:18.599Z,100744.56
2023-01-20T12:48:56.397Z,100753.41
2023-01-20T12:51:33.841Z,100751.03
2023-01-20T12:54:15.192Z,100754.91
2023-01-20T12:56:49.497Z,100745.97
2023-01-20T12:59:22.747Z,100745.59
2023-01-20T13:02:06.646Z,100747.22
2023-01-20T13:05:20.792Z,100757.59
2023-01-20T13:07:50.963Z,100759.19
2023-01-20T13:10:34.191Z,100768.06
2023-01-20T13:13:05.133Z,100768.31
2023-01-20T13:15:36.397Z,100763.13
2023-01-20T13:18:25.217Z,100765.50
2023-01-20T13:20:53.737Z,100768.50
2023-01-20T13:23:24.085Z,100761.81
2023-01-20T13:25:53.448Z,100762.72
2023-01-20T13:28:22.910Z,100752.47
2023-01-20T13:30:53.901Z,100758.44
2023-01-20T13:33:34.392Z,100759.28
2023-01-20T13:36:02.623Z,100760.16
2023-01-20T13:38:33.133Z,100751.03
2023-01-20T13:41:05.905Z,100750.78
2023-01-20T13:43:38.584Z,100757.59
2023-01-20T13:46:38.245Z,100756.41
2023-01-20T13:49:14.962Z,100755.47
2023-01-20T13:51:48.051Z,100754.81
2023-01-20T13:54:44.216Z,100752.06
2023-01-20T13:57:36.666Z,100762.38
2023-01-20T14:00:16.622Z,100762.59
2023-01-20T14:02:44.317Z,100753.28
2023-01-20T14:05:36.068Z,100754.47
2023-01-20T14:08:03.753Z,100756.38
2023-01-20T14:10:31.295Z,100765.59
2023-01-20T14:13:00.246Z,100763.56
2023-01-20T14:15:32.076Z,100769.22
2023-01-20T14:18:00.748Z,100766.47
2023-01-20T14:20:29.503Z,100771.72
2023-01-20T14:22:57.778Z,100777.09
2023-01-20T14:25:26.845Z,100768.56
2023-01-20T14:27:55.729Z,100776.66
2023-01-20T14:30:27.062Z,100779.69
2023-01-20T14:32:54.843Z,100783.91
2023-01-20T14:35:27.393Z,100785.50
2023-01-20T14:37:55.275Z,100779.25
2023-01-20T14:40:26.432Z,100774.38
2023-01-20T14:42:58.962Z,100782.13
2023-01-20T14:45:29.703Z,100785.59
2023-01-20T14:47:58.158Z,100789.81
2023-01-20T14:50:26.132Z,100790.41
2023-01-20T14:52:53.821Z,100790.16
2023-01-20T14:55:35.459Z,100796.78
2023-01-20T14:58:08.409Z,100802.31
2023-01-20T15:00:43.711Z,100800.16
2023-01-20T15:03:15.420Z,100801.28
2023-01-20T15:05:53.307Z,100798.19
2023-01-20T15:08:26.270Z,100806.41
2023-01-20T15:11:21.580Z,100813.91
2023-01-20T15:14:13.162Z,100811.84
2023-01-20T15:16:50.245Z,100812.78
2023-01-20T15:19:38.786Z,100811.94
2023-01-20T15:22:18.872Z,100807.50
2023-01-20T15:24:47.505Z,100817.41
2023-01-20T15:27:30.546Z,100811.38
2023-01-20T15:30:20.846Z,100817.13
2023-01-20T15:32:51.510Z,100821.78
2023-01-20T15:35:22.852Z,100827.03
2023-01-20T15:37:51.162Z,100821.44
2023-01-20T15:40:20.513Z,100823.63
2023-01-20T15:42:48.404Z,100826.13
2023-01-20T15:45:16.734Z,100827.97
2023-01-20T15:47:45.083Z,100833.22
2023-01-20T15:50:16.486Z,100835.09
2023-01-20T15:52:44.755Z,100836.00
2023-01-20T15:55:13.530Z,100839.16
2023-01-20T15:57:41.271Z,100839.91
2023-01-20T16:00:17.144Z,100845.59
2023-01-20T16:02:44.853Z,100850.59
2023-01-20T16:05:15.739Z,100841.44
2023-01-20T16:07:47.441Z,100847.53
2023-01-20T16:10:17.247Z,100840.09
2023-01-20T16:12:45.144Z,100845.59
2023-01-20T16:15:17.558Z,100851.13
2023-01-20T16:17:45.059Z,100848.34
2023-01-20T16:20:20.190Z,100860.44
2023-01-20T16:22:49.168Z,100852.53
2023-01-20T16:25:17.198Z,100854.72
2023-01-20T16:27:45.007Z,100860.56
2023-01-20T16:30:16.105Z,100864.13
2023-01-20T16:32:46.056Z,100866.63
2023-01-20T16:35:14.119Z,100859.06
2023-01-20T16:37:42.307Z,100864.97
2023-01-20T16:40:13.301Z,100867.22
2023-01-20T16:42:41.076Z,100869.97
2023-01-20T16:45:20.212Z,100869.59
2023-01-20T16:47:47.844Z,100864.97
2023-01-20T16:50:15.765Z,100871.97
2023-01-20T16:52:43.349Z,100878.69
2023-01-20T16:55:13.563Z,100879.63
2023-01-20T16:57:41.313Z,100881.19
2023-01-20T17:00:10.121Z,100883.41
2023-01-20T17:02:38.967Z,100893.44
2023-01-20T17:05:07.853Z,100902.53
2023-01-20T17:07:35.908Z,100905.00
2023-01-20T17:10:03.472Z,100908.44
2023-01-20T17:12:32.706Z,100914.13
2023-01-20T17:15:00.547Z,100915.13
2023-01-20T17:17:28.039Z,100910.66
2023-01-20T17:19:55.521Z,100917.00
2023-01-20T17:22:23.004Z,100923.53
2023-01-20T17:24:50.486Z,100924.47
2023-01-20T17:27:17.990Z,100916.94
2023-01-20T17:29:46.830Z,100925.91
2023-01-20T17:32:15.956Z,100931.16
2023-01-20T17:34:43.408Z,100930.97
2023-01-20T17:37:10.850Z,100922.38
2023-01-20T17:39:38.324Z,100926.66
2023-01-20T17:42:05.859Z,100935.25
2023-01-20T17:44:33.340Z,100935.25
2023-01-20T17:47:02.140Z,100936.13
2023-01-20T17:49:29.584Z,100943.16
2023-01-20T17:51:57.074Z,100943.16
2023-01-20T17:54:24.549Z,100946.09
2023-01-20T17:56:52.006Z,100950.47
2023-01-20T17:59:19.462Z,100946.75
2023-01-20T18:01:46.922Z,100950.84
2023-01-20T18:04:16.029Z,100958.03
2023-01-20T18:06:43.513Z,100962.81
2023-01-20T18:09:13.829Z,100961.16
2023-01-20T18:11:43.456Z,100957.31
2023-01-20T18:14:11.079Z,100971.09
2023-01-20T18:16:40.219Z,100972.75
2023-01-20T18:19:08.136Z,100971.75
2023-01-20T18:21:38.094Z,100971.66
2023-01-20T18:24:08.177Z,100981.19
2023-01-20T18:26:37.178Z,100972.94
2023-01-20T18:29:06.628Z,100988.41
2023-01-20T18:31:35.267Z,100980.66
2023-01-20T18:34:04.979Z,100982.75
2023-01-20T18:36:34.162Z,100978.66
2023-01-20T18:39:05.615Z,100998.63
2023-01-20T18:41:37.354Z,100992.03
2023-01-20T18:44:06.151Z,100999.06
2023-01-20T18:46:34.191Z,100990.53
2023-01-20T18:49:02.123Z,100996.97
2023-01-20T18:51:31.285Z,100992.97
2023-01-20T18:54:00.931Z,100990.47
2023-01-20T18:56:30.740Z,100995.47
2023-01-20T18:58:58.470Z,100993.66
2023-01-20T19:01:27.907Z,101000.28
2023-01-20T19:03:56.145Z,101008.72
2023-01-20T19:06:25.579Z,100997.75
2023-01-20T19:08:53.374Z,101014.22
2023-01-20T19:11:23.752Z,101010.53
2023-01-20T19:13:53.633Z,101011.38
2023-01-20T19:16:23.975Z,101018.53
2023-01-20T19:18:53.101Z,101020.47
2023-01-20T19:21:20.756Z,101013.53
2023-01-20T19:23:49.595Z,101022.22
2023-01-20T19:26:18.972Z,101014.72
2023-01-20T19:28:47.450Z,101016.63
2023-01-20T19:31:24.531Z,101020.47
2023-01-20T19:33:59.435Z,101016.16
2023-01-20T19:36:28.879Z,101021.41
2023-01-20T19:39:04.747Z,101027.97
2023-01-20T19:41:40.805Z,101029.31
2023-01-20T19:44:09.043Z,101031.53
2023-01-20T19:46:39.756Z,101040.03
2023-01-20T19:49:07.993Z,101033.91
2023-01-20T19:51:37.189Z,101039.16
2023-01-20T19:54:05.916Z,101043.25
2023-01-20T19:56:39.999Z,101038.22
2023-01-20T19:59:10.287Z,101043.63
2023-01-20T20:01:39.937Z,101041.69
2023-01-20T20:04:13.448Z,101047.91
2023-01-20T20:06:48.448Z,101043.97
2023-01-20T20:09:28.097Z,101049.44
2023-01-20T20:12:06.006Z,101045.75
2023-01-20T20:14:35.665Z,101051.72
2023-01-20T20:17:05.067Z,101048.38
2023-01-20T20:19:35.620Z,101049.91
2023-01-20T20:22:03.273Z,101060.91
2023-01-20T20:24:32.189Z,101059.13
2023-01-20T20:26:59.886Z,101062.97
2023-01-20T20:29:29.231Z,101071.31
2023-01-20T20:31:57.379Z,101058.66
2023-01-20T20:34:31.265Z,101064.88
2023-01-20T20:37:04.139Z,101066.75
2023-01-20T20:39:35.132Z,101067.34
2023-01-20T20:42:03.054Z,101067.34
2023-01-20T20:44:40.796Z,101076.91
2023-01-20T20:47:08.575Z,101080.47
2023-01-20T20:49:40.087Z,101080.63
2023-01-20T20:52:08.818Z,101077.75
2023-01-20T20:54:36.553Z,101072.97
2023-01-20T20:57:07.979Z,101081.69
2023-01-20T20:59:37.626Z,101089.69
2023-01-20T21:02:14.987Z,101085.63
2023-01-20T21:04:43.936Z,101082.25
2023-01-20T21:07:12.036Z,101087.06
2023-01-20T21:09:39.694Z,101097.16
2023-01-20T21:12:09.990Z,101092.03
2023-01-20T21:14:37.594Z,101093.56
2023-01-20T21:17:09.346Z,101095.69
2023-01-20T21:19:37.200Z,101092.88
2023-01-20T21:22:09.154Z,101101.34
2023-01-20T21:24:36.695Z,101107.66
2023-01-20T21:27:07.962Z,101109.22
2023-01-20T21:29:36.052Z,101107.28
2023-01-20T21:32:06.502Z,101114.06
2023-01-20T21:34:37.039Z,101118.63
2023-01-20T21:37:07.283Z,101105.94
2023-01-20T21:39:35.345Z,101114.81
2023-01-20T21:42:06.089Z,101116.09
2023-01-20T21:44:32.825Z,101119.44
2023-01-20T21:47:01.460Z,101124.00
2023-01-20T21:49:46.909Z,101123.53
2023-01-20T21:52:34.536Z,101124.22
2023-01-20T21:55:02.220Z,101125.06
2023-01-20T21:57:31.483Z,101137.47
2023-01-20T21:59:59.191Z,101131.59
2023-01-20T22:02:27.323Z,101131.97
2023-01-20T22:04:55.365Z,101148.41
2023-01-20T22:07:24.829Z,101139.72
2023-01-20T22:09:52.401Z,101153.19
2023-01-20T22:12:20.039Z,101156.78
2023-01-20T22:14:47.633Z,101167.28
2023-01-20T22:17:15.403Z,101166.88
2023-01-20T22:19:43.805Z,101162.03
2023-01-20T22:22:13.484Z,101174.41
2023-01-20T22:24:43.963Z,101174.66
2023-01-20T22:27:11.527Z,101184.06
2023-01-20T22:29:39.056Z,101186.34
2023-01-20T22:32:06.628Z,101185.78
2023-01-20T22:34:34.244Z,101189.31
2023-01-20T22:37:01.817Z,101193.09
2023-01-20T22:39:29.649Z,101189.63
2023-01-20T22:41:58.585Z,101197.34
2023-01-20T22:44:26.239Z,101198.03
2023-01-20T22:46:53.822Z,101204.25
2023-01-20T22:49:21.360Z,101216.69
2023-01-20T22:51:48.862Z,101208.41
2023-01-20T22:54:16.450Z,101218.34
2023-01-20T22:56:44.003Z,101210.56
2023-01-20T22:59:13.472Z,101217.50
2023-01-20T23:01:41.140Z,101216.81
2023-01-20T23:04:08.707Z,101216.47
2023-01-20T23:06:37.196Z,101223.19
2023-01-20T23:09:07.378Z,101222.88
2023-01-20T23:11:36.282Z,101223.09
2023-01-20T23:14:04.005Z,101230.53
2023-01-20T23:16:33.007Z,101228.75
2023-01-20T23:19:00.577Z,101233.59
2023-01-20T23:21:28.095Z,101236.84
2023-01-20T23:23:55.981Z,101244.09
2023-01-20T23:26:25.524Z,101238.63
2023-01-20T23:28:54.333Z,101239.19
2023-01-20T23:31:22.902Z,101252.31
2023-01-20T23:33:52.026Z,101255.13
2023-01-20T23:36:20.945Z,101253.94
2023-01-20T23:38:48.650Z,101254.81
2023-01-20T23:41:16.894Z,101252.81
2023-01-20T23:43:44.569Z,101258.38
2023-01-20T23:46:12.231Z,101261.34
2023-01-20T23:48:40.186Z,101263.28
2023-01-20T23:51:09.114Z,101274.34
2023-01-20T23:53:41.297Z,101273.94
2023-01-20T23:56:12.165Z,101271.94
2023-01-20T23:58:40.412Z,101282.31
